Time;durP1;ratioP1;P1;durP2;ratioP2;P2;SDS_P1;SDS_P2;PMS_P1;PMS_P2;Temp;Humidity;BMP_temperature;BMP_pressure;BME280_temperature;BME280_humidity;BME280_pressure;Samples;Min_cycle;Max_cycle;Signal;HPM_P1;HPM_P2
2022/11/01 00:00:47;;;;;;;12.52;5.55;;;;;;;;;;4992657;28;20201;-61
2022/11/01 00:03:12;;;;;;;10.63;5.40;;;;;;;;;;4992574;28;20224;-62
2022/11/01 00:05:38;;;;;;;12.88;5.40;;;;;;;;;;4993083;28;20577;-61
2022/11/01 00:08:03;;;;;;;11.60;5.97;;;;;;;;;;4991672;28;20215;-62
2022/11/01 00:10:28;;;;;;;14.30;5.78;;;;;;;;;;4992712;28;20664;-61
2022/11/01 00:12:54;;;;;;;8.88;5.38;;;;;;;;;;4992976;28;20212;-61
2022/11/01 00:15:19;;;;;;;12.43;5.93;;;;;;;;;;4991737;28;20208;-61
2022/11/01 00:17:44;;;;;;;15.23;5.60;;;;;;;;;;4993253;28;20688;-61
2022/11/01 00:20:10;;;;;;;12.13;6.00;;;;;;;;;;4992587;28;20264;-62
2022/11/01 00:22:35;;;;;;;12.23;5.88;;;;;;;;;;4991987;28;20221;-61
2022/11/01 00:25:00;;;;;;;12.68;6.07;;;;;;;;;;4992188;28;20255;-62
2022/11/01 00:27:26;;;;;;;11.20;5.70;;;;;;;;;;5008150;28;20213;-61
2022/11/01 00:29:51;;;;;;;13.70;6.30;;;;;;;;;;4992026;28;20209;-61
2022/11/01 00:32:16;;;;;;;12.52;5.55;;;;;;;;;;4992541;28;20234;-61
2022/11/01 00:34:41;;;;;;;12.55;6.10;;;;;;;;;;4992822;28;20703;-61
2022/11/01 00:37:07;;;;;;;12.68;6.00;;;;;;;;;;4991616;28;20260;-61
2022/11/01 00:39:32;;;;;;;9.90;5.18;;;;;;;;;;4992190;28;20205;-61
2022/11/01 00:41:57;;;;;;;12.60;6.07;;;;;;;;;;4992815;28;20251;-61
2022/11/01 00:44:22;;;;;;;15.63;5.70;;;;;;;;;;4991688;28;20229;-61
2022/11/01 00:46:48;;;;;;;12.68;5.70;;;;;;;;;;4992637;28;20579;-61
2022/11/01 00:49:13;;;;;;;15.27;5.85;;;;;;;;;;4992216;28;20221;-61
2022/11/01 00:51:38;;;;;;;13.63;5.65;;;;;;;;;;4994586;28;20683;-61
2022/11/01 00:54:04;;;;;;;15.73;6.43;;;;;;;;;;4995818;28;20221;-62
2022/11/01 00:56:29;;;;;;;12.38;5.97;;;;;;;;;;4996072;28;20233;-62
2022/11/01 00:58:54;;;;;;;11.88;5.30;;;;;;;;;;4995442;28;20279;-61
2022/11/01 01:01:19;;;;;;;16.58;6.40;;;;;;;;;;5010839;28;20213;-61
2022/11/01 01:03:45;;;;;;;13.88;6.20;;;;;;;;;;4996113;28;20232;-61
2022/11/01 01:06:10;;;;;;;13.50;5.90;;;;;;;;;;4994959;28;20288;-62
2022/11/01 01:08:35;;;;;;;12.75;5.82;;;;;;;;;;4996034;28;20651;-61
2022/11/01 01:11:00;;;;;;;11.55;5.57;;;;;;;;;;4995342;28;20213;-63
2022/11/01 01:13:26;;;;;;;13.93;5.90;;;;;;;;;;4995426;28;20267;-62
2022/11/01 01:15:51;;;;;;;13.95;5.65;;;;;;;;;;4995868;28;20217;-61
2022/11/01 01:18:16;;;;;;;14.52;6.18;;;;;;;;;;4994945;28;20283;-61
2022/11/01 01:20:42;;;;;;;16.25;6.47;;;;;;;;;;4995833;28;20240;-61
2022/11/01 01:23:07;;;;;;;12.77;6.50;;;;;;;;;;4995353;28;20217;-62
2022/11/01 01:25:32;;;;;;;10.13;5.28;;;;;;;;;;4994674;28;20312;-61
2022/11/01 01:27:57;;;;;;;15.32;6.43;;;;;;;;;;4995851;28;20216;-61
2022/11/01 01:30:23;;;;;;;14.85;5.90;;;;;;;;;;4995381;28;20295;-61
2022/11/01 01:32:48;;;;;;;11.90;5.57;;;;;;;;;;4994946;28;20213;-61
2022/11/01 01:35:13;;;;;;;12.63;5.55;;;;;;;;;;4995345;28;20688;-61
2022/11/01 01:37:38;;;;;;;12.23;5.60;;;;;;;;;;4995475;28;20220;-61
2022/11/01 01:40:04;;;;;;;13.43;5.03;;;;;;;;;;4994196;28;20224;-61
2022/11/01 01:42:31;;;;;;;13.85;5.40;;;;;;;;;;4995373;28;20221;-61
2022/11/01 01:44:56;;;;;;;10.40;4.93;;;;;;;;;;4995423;28;20197;-61
2022/11/01 01:47:22;;;;;;;10.65;5.32;;;;;;;;;;4994118;28;20217;-62
2022/11/01 01:49:48;;;;;;;11.13;5.03;;;;;;;;;;5010444;28;20587;-61
2022/11/01 01:52:13;;;;;;;13.60;6.07;;;;;;;;;;5009649;28;20229;-61
2022/11/01 01:54:39;;;;;;;12.20;5.63;;;;;;;;;;4985831;28;20292;-61
2022/11/01 01:57:04;;;;;;;10.50;4.75;;;;;;;;;;4966392;28;20233;-62
2022/11/01 01:59:29;;;;;;;12.32;5.10;;;;;;;;;;4985203;28;20734;-61
2022/11/01 02:01:54;;;;;;;12.48;5.40;;;;;;;;;;4983750;28;20221;-61
2022/11/01 02:04:24;;;;;;;8.02;4.72;;;;;;;;;;4981278;28;20756;-61
2022/11/01 02:06:49;;;;;;;10.48;5.00;;;;;;;;;;4976437;28;20780;-61
2022/11/01 02:09:14;;;;;;;15.02;4.80;;;;;;;;;;4974377;28;20726;-61
2022/11/01 02:11:40;;;;;;;13.48;4.65;;;;;;;;;;4993571;28;20237;-61
2022/11/01 02:14:05;;;;;;;12.10;4.85;;;;;;;;;;4984574;28;20216;-61
2022/11/01 02:16:44;;;;;;;10.85;4.60;;;;;;;;;;4982460;28;20228;-61
2022/11/01 02:19:21;;;;;;;12.80;4.68;;;;;;;;;;4984562;28;20205;-61
2022/11/01 02:21:54;;;;;;;10.30;4.57;;;;;;;;;;4982461;28;20252;-61
2022/11/01 02:24:24;;;;;;;11.70;4.55;;;;;;;;;;4983202;28;20296;-62
2022/11/01 02:26:53;;;;;;;10.50;4.55;;;;;;;;;;4981407;28;20209;-61
2022/11/01 02:29:34;;;;;;;10.60;4.90;;;;;;;;;;4975190;28;20224;-61
2022/11/01 02:32:02;;;;;;;8.60;4.70;;;;;;;;;;4975161;28;20813;-62
2022/11/01 02:34:29;;;;;;;9.15;4.38;;;;;;;;;;4977552;28;20217;-62
2022/11/01 02:36:56;;;;;;;10.27;4.55;;;;;;;;;;4982521;28;20255;-61
2022/11/01 02:39:22;;;;;;;9.32;4.60;;;;;;;;;;4966399;28;20562;-62
2022/11/01 02:41:50;;;;;;;10.48;4.80;;;;;;;;;;4982876;28;20220;-61
2022/11/01 02:44:17;;;;;;;10.73;5.28;;;;;;;;;;4981430;28;20700;-62
2022/11/01 02:47:01;;;;;;;13.05;5.05;;;;;;;;;;4999307;28;20213;-61
2022/11/01 02:49:29;;;;;;;12.60;5.13;;;;;;;;;;4981828;28;20224;-62
2022/11/01 02:51:54;;;;;;;9.95;5.07;;;;;;;;;;4990994;28;20804;-61
2022/11/01 02:54:20;;;;;;;11.95;4.70;;;;;;;;;;4975833;28;20209;-61
2022/11/01 02:56:45;;;;;;;10.02;4.43;;;;;;;;;;4976980;28;20303;-62
2022/11/01 02:59:14;;;;;;;10.07;4.68;;;;;;;;;;4998602;28;20668;-62
2022/11/01 03:01:39;;;;;;;11.63;4.38;;;;;;;;;;4998478;28;20293;-61
2022/11/01 03:04:04;;;;;;;10.70;4.00;;;;;;;;;;4981133;28;20213;-62
2022/11/01 03:06:32;;;;;;;9.60;4.82;;;;;;;;;;4984020;28;20309;-61
2022/11/01 03:09:00;;;;;;;11.80;4.40;;;;;;;;;;4998989;28;20233;-62
2022/11/01 03:11:26;;;;;;;10.38;4.97;;;;;;;;;;4982332;28;20212;-62
2022/11/01 03:13:55;;;;;;;8.52;3.88;;;;;;;;;;4975881;28;20334;-62
2022/11/01 03:16:24;;;;;;;9.05;4.20;;;;;;;;;;4975530;28;20221;-61
2022/11/01 03:18:54;;;;;;;10.95;4.38;;;;;;;;;;4975873;28;20272;-61
2022/11/01 03:21:20;;;;;;;8.07;4.10;;;;;;;;;;4998456;28;20268;-62
2022/11/01 03:23:49;;;;;;;9.68;4.50;;;;;;;;;;4983437;28;20274;-62
2022/11/01 03:26:15;;;;;;;12.35;4.35;;;;;;;;;;4997375;28;20236;-62
2022/11/01 03:28:41;;;;;;;9.10;4.40;;;;;;;;;;4998517;28;20251;-61
2022/11/01 03:31:07;;;;;;;10.90;4.50;;;;;;;;;;4998127;28;20213;-62
2022/11/01 03:33:33;;;;;;;11.43;3.97;;;;;;;;;;4997847;28;20209;-61
2022/11/01 03:36:00;;;;;;;11.40;4.07;;;;;;;;;;4976290;28;20224;-62
2022/11/01 03:38:26;;;;;;;9.18;4.13;;;;;;;;;;4989607;28;20216;-62
2022/11/01 03:40:52;;;;;;;10.85;4.28;;;;;;;;;;4989708;28;20252;-62
2022/11/01 03:43:18;;;;;;;8.18;3.88;;;;;;;;;;4995911;28;20236;-62
2022/11/01 03:45:43;;;;;;;11.00;3.95;;;;;;;;;;4994626;28;20221;-62
2022/11/01 03:48:09;;;;;;;8.27;3.83;;;;;;;;;;4934229;28;20209;-61
2022/11/01 03:50:34;;;;;;;9.48;3.80;;;;;;;;;;4978535;28;20620;-61
2022/11/01 03:52:59;;;;;;;8.25;3.70;;;;;;;;;;4964601;28;20214;-62
2022/11/01 03:55:25;;;;;;;8.40;3.45;;;;;;;;;;4971197;28;20209;-62
2022/11/01 03:57:51;;;;;;;10.93;3.78;;;;;;;;;;4973382;28;20257;-62
2022/11/01 04:00:16;;;;;;;8.85;3.95;;;;;;;;;;4961630;28;20218;-62
2022/11/01 04:02:42;;;;;;;7.75;3.65;;;;;;;;;;4975868;28;20898;-62
2022/11/01 04:05:07;;;;;;;11.43;3.80;;;;;;;;;;4955790;28;20214;-62
2022/11/01 04:07:33;;;;;;;13.07;3.53;;;;;;;;;;4955071;28;20264;-61
2022/11/01 04:09:58;;;;;;;8.27;3.40;;;;;;;;;;4957854;28;20215;-61
2022/11/01 04:12:23;;;;;;;12.15;3.70;;;;;;;;;;4963241;28;20237;-62
2022/11/01 04:20:32;;;;;;;11.20;3.00;;;;;;;;;;4982333;28;20227;-62
2022/11/01 04:22:58;;;;;;;8.07;3.42;;;;;;;;;;4982509;28;20229;-62
2022/11/01 04:25:23;;;;;;;8.40;3.20;;;;;;;;;;4996836;28;20216;-62
2022/11/01 04:27:48;;;;;;;10.18;3.55;;;;;;;;;;4979407;28;20215;-61
2022/11/01 04:30:14;;;;;;;5.53;3.03;;;;;;;;;;4977693;28;20672;-62
2022/11/01 04:32:48;;;;;;;8.88;3.13;;;;;;;;;;4981842;28;20205;-62
2022/11/01 04:35:13;;;;;;;9.13;3.08;;;;;;;;;;4985497;28;20223;-62
2022/11/01 04:37:38;;;;;;;9.95;3.05;;;;;;;;;;4986990;28;20209;-62
2022/11/01 04:40:06;;;;;;;8.80;2.40;;;;;;;;;;4986051;28;20618;-62
2022/11/01 04:42:33;;;;;;;7.97;2.42;;;;;;;;;;5000695;28;20225;-61
2022/11/01 04:44:58;;;;;;;5.60;2.28;;;;;;;;;;4985919;28;20218;-61
2022/11/01 04:47:23;;;;;;;7.97;2.10;;;;;;;;;;4984577;28;20224;-62
2022/11/01 04:49:49;;;;;;;5.03;1.70;;;;;;;;;;4978769;28;21173;-62
2022/11/01 04:52:14;;;;;;;6.03;1.25;;;;;;;;;;4977880;28;20224;-62
2022/11/01 04:54:39;;;;;;;4.63;1.05;;;;;;;;;;4979910;28;20271;-61
2022/11/01 04:57:05;;;;;;;1.88;1.05;;;;;;;;;;4984842;28;20228;-62
2022/11/01 04:59:30;;;;;;;3.55;0.73;;;;;;;;;;4986209;28;20232;-61
2022/11/01 05:01:55;;;;;;;3.08;0.73;;;;;;;;;;4985960;28;20347;-61
2022/11/01 05:04:20;;;;;;;5.35;0.70;;;;;;;;;;4985407;28;20217;-62
2022/11/01 05:06:46;;;;;;;5.78;0.85;;;;;;;;;;4986073;28;20316;-61
2022/11/01 05:09:11;;;;;;;5.90;1.13;;;;;;;;;;4985898;28;20279;-62
2022/11/01 05:11:36;;;;;;;3.80;0.73;;;;;;;;;;4979124;28;20853;-62
2022/11/01 05:14:01;;;;;;;4.57;0.68;;;;;;;;;;4977602;28;20240;-62
2022/11/01 05:16:27;;;;;;;4.55;0.82;;;;;;;;;;4977210;28;20221;-61
2022/11/01 05:18:52;;;;;;;5.03;0.80;;;;;;;;;;4983694;28;20212;-61
2022/11/01 05:21:17;;;;;;;5.45;1.00;;;;;;;;;;4985532;28;20217;-62
2022/11/01 05:23:42;;;;;;;2.60;0.70;;;;;;;;;;4985773;28;20217;-61
2022/11/01 05:26:08;;;;;;;6.75;1.25;;;;;;;;;;4984880;28;20213;-62
2022/11/01 05:28:33;;;;;;;4.97;0.80;;;;;;;;;;4985595;28;20233;-61
2022/11/01 05:30:58;;;;;;;5.22;0.70;;;;;;;;;;4985752;28;20707;-61
2022/11/01 05:33:24;;;;;;;1.67;0.90;;;;;;;;;;4980902;28;20248;-61
2022/11/01 05:35:49;;;;;;;5.03;0.98;;;;;;;;;;4977617;28;20288;-61
2022/11/01 05:38:14;;;;;;;3.20;0.90;;;;;;;;;;4976868;28;20217;-62
2022/11/01 05:40:40;;;;;;;4.22;0.80;;;;;;;;;;4980809;28;20223;-61
2022/11/01 05:43:05;;;;;;;2.92;0.82;;;;;;;;;;4984865;28;20228;-61
2022/11/01 05:45:30;;;;;;;3.95;1.40;;;;;;;;;;4984622;28;20231;-61
2022/11/01 05:48:00;;;;;;;5.05;0.63;;;;;;;;;;4985049;28;20291;-61
2022/11/01 05:50:25;;;;;;;7.78;0.88;;;;;;;;;;4985041;28;20668;-61
2022/11/01 05:52:50;;;;;;;2.83;0.55;;;;;;;;;;4984608;28;20213;-61
2022/11/01 05:55:16;;;;;;;5.53;0.88;;;;;;;;;;4983034;28;20252;-61
2022/11/01 05:57:41;;;;;;;6.20;1.00;;;;;;;;;;4976128;28;20657;-61
2022/11/01 06:00:06;;;;;;;3.38;0.80;;;;;;;;;;4974894;28;20217;-61
2022/11/01 06:02:32;;;;;;;4.03;0.80;;;;;;;;;;4978103;28;20256;-61
2022/11/01 06:04:57;;;;;;;2.47;0.60;;;;;;;;;;4985586;28;20209;-62
2022/11/01 06:07:25;;;;;;;3.47;0.93;;;;;;;;;;4983675;28;20209;-62
2022/11/01 06:09:50;;;;;;;4.53;1.08;;;;;;;;;;4984772;28;20201;-62
2022/11/01 06:12:15;;;;;;;3.58;0.70;;;;;;;;;;4984123;28;20259;-62
2022/11/01 06:14:40;;;;;;;7.47;0.90;;;;;;;;;;4982604;28;20712;-63
2022/11/01 06:17:07;;;;;;;3.10;0.70;;;;;;;;;;4982658;28;20212;-63
2022/11/01 06:19:32;;;;;;;4.50;0.88;;;;;;;;;;4974936;28;20433;-63
2022/11/01 06:21:57;;;;;;;6.45;1.00;;;;;;;;;;4974564;28;20251;-64
2022/11/01 06:24:22;;;;;;;5.65;1.08;;;;;;;;;;4974776;28;20264;-64
2022/11/01 06:26:48;;;;;;;2.45;0.70;;;;;;;;;;4982322;28;20213;-63
2022/11/01 06:29:13;;;;;;;5.47;0.90;;;;;;;;;;4982067;28;20817;-64
2022/11/01 06:31:38;;;;;;;4.45;0.90;;;;;;;;;;4982244;28;20612;-64
2022/11/01 06:34:03;;;;;;;6.93;0.80;;;;;;;;;;4981332;28;20308;-64
2022/11/01 06:36:29;;;;;;;4.20;0.93;;;;;;;;;;4982500;28;20228;-64
2022/11/01 06:38:54;;;;;;;5.72;0.88;;;;;;;;;;4982864;28;20240;-62
2022/11/01 06:41:19;;;;;;;3.13;0.70;;;;;;;;;;4979093;28;20209;-63
2022/11/01 06:43:46;;;;;;;9.32;1.25;;;;;;;;;;4974492;28;20236;-62
2022/11/01 06:46:12;;;;;;;5.72;0.80;;;;;;;;;;4974825;28;20801;-63
2022/11/01 06:48:37;;;;;;;8.38;1.35;;;;;;;;;;4977259;28;20435;-62
2022/11/01 06:51:02;;;;;;;4.55;0.90;;;;;;;;;;4982209;28;20219;-63
2022/11/01 06:53:28;;;;;;;7.13;0.90;;;;;;;;;;4983192;28;20221;-63
2022/11/01 06:55:53;;;;;;;7.05;0.80;;;;;;;;;;4966648;28;21039;-62
2022/11/01 06:58:18;;;;;;;5.82;1.00;;;;;;;;;;4975130;28;20316;-62
2022/11/01 07:00:44;;;;;;;2.67;0.60;;;;;;;;;;4975676;28;20948;-62
2022/11/01 07:03:11;;;;;;;4.78;0.70;;;;;;;;;;4974707;28;20268;-62
2022/11/01 07:05:36;;;;;;;4.30;1.00;;;;;;;;;;4967139;28;20216;-63
2022/11/01 07:08:02;;;;;;;3.13;0.85;;;;;;;;;;4967401;28;20213;-63
2022/11/01 07:10:27;;;;;;;7.90;1.27;;;;;;;;;;4969873;28;20209;-62
2022/11/01 07:12:56;;;;;;;7.22;0.98;;;;;;;;;;4975957;28;20755;-63
2022/11/01 07:15:22;;;;;;;8.40;1.40;;;;;;;;;;4973479;28;20745;-62
2022/11/01 07:17:47;;;;;;;8.63;1.35;;;;;;;;;;4990943;28;20237;-63
2022/11/01 07:20:12;;;;;;;9.60;1.30;;;;;;;;;;4976968;28;20679;-62
2022/11/01 07:22:38;;;;;;;10.07;1.48;;;;;;;;;;4982017;28;20594;-63
2022/11/01 07:25:03;;;;;;;7.60;1.40;;;;;;;;;;4983005;28;20224;-63
2022/11/01 07:27:29;;;;;;;7.20;1.15;;;;;;;;;;4986426;28;20286;-62
2022/11/01 07:29:54;;;;;;;7.03;1.30;;;;;;;;;;4988287;28;20710;-62
2022/11/01 07:32:19;;;;;;;6.65;1.35;;;;;;;;;;4986973;28;20228;-63
2022/11/01 07:34:44;;;;;;;8.38;1.58;;;;;;;;;;4986565;28;20222;-62
2022/11/01 07:37:10;;;;;;;7.20;1.67;;;;;;;;;;4987238;28;20205;-62
2022/11/01 07:39:35;;;;;;;7.00;1.50;;;;;;;;;;4983500;28;20216;-62
2022/11/01 07:42:00;;;;;;;8.63;1.48;;;;;;;;;;4991788;28;20218;-63
2022/11/01 07:44:25;;;;;;;7.40;1.30;;;;;;;;;;5006858;28;20801;-62
2022/11/01 07:46:51;;;;;;;8.30;1.75;;;;;;;;;;4989202;28;20280;-62
2022/11/01 07:49:16;;;;;;;7.18;1.30;;;;;;;;;;4979446;28;20790;-62
2022/11/01 07:51:41;;;;;;;10.35;1.33;;;;;;;;;;4976357;28;20220;-62
2022/11/01 07:54:06;;;;;;;7.40;0.90;;;;;;;;;;4971694;28;20308;-62
2022/11/01 07:56:32;;;;;;;6.47;1.30;;;;;;;;;;4974418;28;20233;-62
2022/11/01 07:58:57;;;;;;;6.70;1.48;;;;;;;;;;4970918;28;20293;-62
2022/11/01 08:01:22;;;;;;;8.05;1.10;;;;;;;;;;4971322;28;20221;-62
2022/11/01 08:03:48;;;;;;;7.03;1.00;;;;;;;;;;4981255;28;20244;-62
2022/11/01 08:06:13;;;;;;;7.63;1.20;;;;;;;;;;4993600;28;20221;-62
2022/11/01 08:08:38;;;;;;;9.52;1.70;;;;;;;;;;4968683;28;20231;-62
2022/11/01 08:11:04;;;;;;;7.38;1.60;;;;;;;;;;4971817;28;20349;-63
2022/11/01 08:13:29;;;;;;;11.55;1.38;;;;;;;;;;4985630;28;20217;-62
2022/11/01 08:15:55;;;;;;;5.47;1.35;;;;;;;;;;4985572;28;20205;-62
2022/11/01 08:18:21;;;;;;;9.10;1.30;;;;;;;;;;4985169;28;20232;-62
2022/11/01 08:20:46;;;;;;;9.95;1.33;;;;;;;;;;4986464;28;20724;-62
2022/11/01 08:23:12;;;;;;;8.48;1.92;;;;;;;;;;4986662;28;20232;-62
2022/11/01 08:25:37;;;;;;;6.57;1.23;;;;;;;;;;4987166;28;20227;-63
2022/11/01 08:28:03;;;;;;;10.88;1.52;;;;;;;;;;5001155;28;20205;-62
2022/11/01 08:30:28;;;;;;;9.85;1.75;;;;;;;;;;4987130;28;20235;-62
2022/11/01 08:32:57;;;;;;;10.75;2.20;;;;;;;;;;4987404;28;20209;-62
2022/11/01 08:35:22;;;;;;;10.40;1.85;;;;;;;;;;5000669;28;20233;-62
2022/11/01 08:37:48;;;;;;;9.30;1.60;;;;;;;;;;4987118;28;20437;-62
2022/11/01 08:40:14;;;;;;;7.18;1.80;;;;;;;;;;4986404;28;20213;-62
2022/11/01 08:42:39;;;;;;;10.70;2.13;;;;;;;;;;4986433;28;20224;-62
2022/11/01 08:45:05;;;;;;;8.38;1.55;;;;;;;;;;4985126;28;20224;-62
2022/11/01 08:47:30;;;;;;;9.52;1.67;;;;;;;;;;4987534;28;20213;-61
2022/11/01 08:49:55;;;;;;;11.43;2.05;;;;;;;;;;4983951;28;20209;-62
2022/11/01 08:52:20;;;;;;;11.02;1.88;;;;;;;;;;4986760;28;20209;-61
2022/11/01 08:54:46;;;;;;;13.10;2.42;;;;;;;;;;4984531;28;20205;-61
2022/11/01 08:57:11;;;;;;;13.43;2.10;;;;;;;;;;4985726;28;20873;-62
2022/11/01 08:59:36;;;;;;;11.13;1.80;;;;;;;;;;4987157;28;20232;-62
2022/11/01 09:02:01;;;;;;;14.40;2.17;;;;;;;;;;4986516;28;20217;-63
2022/11/01 09:04:27;;;;;;;14.25;2.55;;;;;;;;;;4986368;28;20217;-62
2022/11/01 09:06:52;;;;;;;10.32;1.75;;;;;;;;;;4986893;28;20205;-61
2022/11/01 09:09:17;;;;;;;12.10;2.67;;;;;;;;;;4986688;28;20213;-62
2022/11/01 09:11:42;;;;;;;11.65;1.85;;;;;;;;;;4987829;28;20227;-62
2022/11/01 09:14:08;;;;;;;11.45;1.58;;;;;;;;;;4990262;28;20243;-62
2022/11/01 09:16:33;;;;;;;11.15;2.25;;;;;;;;;;4988902;28;20209;-62
2022/11/01 09:19:00;;;;;;;9.40;2.10;;;;;;;;;;4989029;28;20300;-61
2022/11/01 09:21:26;;;;;;;9.60;1.98;;;;;;;;;;4975686;28;20237;-62
2022/11/01 09:23:51;;;;;;;15.18;2.42;;;;;;;;;;4969943;28;20356;-62
2022/11/01 09:26:17;;;;;;;10.45;2.33;;;;;;;;;;4970533;28;20304;-62
2022/11/01 09:28:42;;;;;;;10.82;2.13;;;;;;;;;;4971181;28;20221;-62
2022/11/01 09:31:09;;;;;;;12.30;2.20;;;;;;;;;;4969866;28;20729;-62
2022/11/01 09:33:34;;;;;;;9.20;2.28;;;;;;;;;;4995409;28;20742;-62
2022/11/01 09:35:59;;;;;;;13.95;2.30;;;;;;;;;;4975420;28;20213;-62
2022/11/01 09:38:25;;;;;;;15.50;2.25;;;;;;;;;;4969311;28;20221;-62
2022/11/01 09:40:56;;;;;;;12.00;1.92;;;;;;;;;;5004702;28;20215;-62
2022/11/01 09:43:21;;;;;;;12.10;2.55;;;;;;;;;;4987853;28;20853;-62
2022/11/01 09:45:47;;;;;;;14.40;2.30;;;;;;;;;;4988097;28;20213;-62
2022/11/01 09:48:12;;;;;;;15.15;2.92;;;;;;;;;;4987655;28;20927;-62
2022/11/01 09:50:38;;;;;;;10.77;2.30;;;;;;;;;;4988907;28;20209;-62
2022/11/01 09:53:08;;;;;;;14.55;2.03;;;;;;;;;;4987092;28;20217;-62
2022/11/01 09:55:39;;;;;;;16.90;2.38;;;;;;;;;;4984792;28;20284;-62
2022/11/01 09:58:15;;;;;;;11.15;1.90;;;;;;;;;;4989461;28;20221;-63
2022/11/01 10:00:42;;;;;;;12.30;2.13;;;;;;;;;;5004345;28;20264;-62
2022/11/01 10:03:16;;;;;;;12.80;1.85;;;;;;;;;;4988908;28;20217;-63
2022/11/01 10:05:42;;;;;;;14.88;2.30;;;;;;;;;;4988726;28;20259;-62
2022/11/01 10:08:13;;;;;;;10.90;1.70;;;;;;;;;;4988660;28;20251;-63
2022/11/01 10:10:40;;;;;;;12.57;2.33;;;;;;;;;;4988251;28;20209;-63
2022/11/01 10:13:09;;;;;;;11.70;1.90;;;;;;;;;;4988244;28;20221;-63
2022/11/01 10:15:35;;;;;;;12.32;2.08;;;;;;;;;;4989369;28;20313;-63
2022/11/01 10:18:03;;;;;;;10.10;1.85;;;;;;;;;;4988909;28;20726;-65
2022/11/01 10:20:30;;;;;;;10.77;1.80;;;;;;;;;;5003683;28;20213;-63
2022/11/01 10:22:55;;;;;;;12.93;2.85;;;;;;;;;;5003764;28;20225;-62
2022/11/01 10:25:22;;;;;;;8.82;1.85;;;;;;;;;;4988785;28;20213;-63
2022/11/01 10:27:53;;;;;;;8.70;1.83;;;;;;;;;;4988506;28;20217;-63
2022/11/01 10:30:18;;;;;;;14.40;2.28;;;;;;;;;;5003494;28;20241;-63
2022/11/01 10:32:47;;;;;;;10.40;2.20;;;;;;;;;;5003929;28;20228;-63
2022/11/01 10:35:13;;;;;;;9.10;2.03;;;;;;;;;;4987717;28;20307;-63
2022/11/01 10:37:40;;;;;;;9.52;2.10;;;;;;;;;;4988518;28;20216;-63
2022/11/01 10:40:09;;;;;;;12.18;1.98;;;;;;;;;;5003335;28;20233;-63
2022/11/01 10:42:35;;;;;;;12.50;2.00;;;;;;;;;;5003048;28;20401;-63
2022/11/01 10:45:02;;;;;;;11.07;1.90;;;;;;;;;;5004371;28;20722;-64
2022/11/01 10:47:27;;;;;;;14.00;2.63;;;;;;;;;;4988575;28;20209;-63
2022/11/01 10:49:52;;;;;;;13.73;2.03;;;;;;;;;;4988422;28;20614;-63
2022/11/01 10:52:20;;;;;;;9.98;1.95;;;;;;;;;;4988096;28;20296;-62
2022/11/01 10:54:45;;;;;;;9.63;2.20;;;;;;;;;;4988188;28;20228;-63
2022/11/01 10:57:25;;;;;;;12.63;2.42;;;;;;;;;;4986095;28;20703;-63
2022/11/01 10:59:50;;;;;;;10.32;2.13;;;;;;;;;;4987407;28;20213;-63
2022/11/01 11:02:17;;;;;;;12.98;2.22;;;;;;;;;;4986899;28;20217;-62
2022/11/01 11:04:42;;;;;;;12.65;2.13;;;;;;;;;;4988471;28;20668;-62
2022/11/01 11:07:11;;;;;;;14.80;2.22;;;;;;;;;;4987656;28;20248;-63
2022/11/01 11:09:37;;;;;;;13.48;2.15;;;;;;;;;;4987343;28;20209;-63
2022/11/01 11:12:04;;;;;;;9.50;2.33;;;;;;;;;;4988237;28;20220;-63
2022/11/01 11:14:30;;;;;;;14.57;2.33;;;;;;;;;;4988179;28;20205;-63
2022/11/01 11:16:55;;;;;;;13.45;2.45;;;;;;;;;;5002233;28;20275;-63
2022/11/01 11:19:23;;;;;;;9.07;2.10;;;;;;;;;;4987152;28;20217;-63
2022/11/01 11:21:49;;;;;;;12.40;2.13;;;;;;;;;;5003369;28;20217;-63
2022/11/01 11:24:18;;;;;;;12.90;2.15;;;;;;;;;;4980826;28;20286;-63
2022/11/01 11:26:43;;;;;;;13.52;2.25;;;;;;;;;;5004440;28;20217;-63
2022/11/01 11:29:09;;;;;;;14.27;2.25;;;;;;;;;;4988343;28;20315;-63
2022/11/01 11:31:34;;;;;;;9.43;1.73;;;;;;;;;;4985815;28;20918;-63
2022/11/01 11:34:03;;;;;;;10.43;2.00;;;;;;;;;;4985105;28;20632;-63
2022/11/01 11:36:33;;;;;;;12.45;1.60;;;;;;;;;;5002820;28;20209;-63
2022/11/01 11:38:59;;;;;;;11.13;1.90;;;;;;;;;;5001648;28;20236;-63
2022/11/01 11:41:26;;;;;;;12.85;1.80;;;;;;;;;;4987120;28;20297;-63
2022/11/01 11:43:51;;;;;;;10.88;1.85;;;;;;;;;;4986326;28;20217;-63
2022/11/01 11:46:22;;;;;;;10.13;1.80;;;;;;;;;;4986834;28;20235;-63
2022/11/01 11:48:48;;;;;;;8.75;1.85;;;;;;;;;;5002058;28;20197;-63
2022/11/01 11:51:13;;;;;;;10.15;1.77;;;;;;;;;;4986355;28;20764;-63
2022/11/01 11:53:39;;;;;;;10.13;2.08;;;;;;;;;;5002880;28;20209;-63
2022/11/01 11:56:06;;;;;;;10.85;1.92;;;;;;;;;;4989011;28;20204;-64
2022/11/01 11:58:32;;;;;;;9.02;1.70;;;;;;;;;;5020920;28;20287;-64
2022/11/01 12:01:02;;;;;;;12.13;2.33;;;;;;;;;;5020916;28;20743;-63
2022/11/01 12:03:27;;;;;;;13.75;2.55;;;;;;;;;;5012650;28;20235;-63
2022/11/01 12:05:54;;;;;;;12.10;1.83;;;;;;;;;;4996104;28;20201;-63
2022/11/01 12:08:23;;;;;;;10.02;1.60;;;;;;;;;;4984644;28;20877;-64
2022/11/01 12:10:54;;;;;;;12.77;1.80;;;;;;;;;;4982094;28;20205;-63
2022/11/01 12:13:22;;;;;;;12.63;1.98;;;;;;;;;;4983619;28;20209;-63
2022/11/01 12:15:47;;;;;;;13.65;2.85;;;;;;;;;;4985802;28;20243;-63
2022/11/01 12:18:14;;;;;;;9.10;1.92;;;;;;;;;;4985696;28;20922;-64
2022/11/01 12:20:39;;;;;;;8.63;1.80;;;;;;;;;;4982309;28;20736;-63
2022/11/01 12:23:23;;;;;;;10.73;1.88;;;;;;;;;;4983584;28;20308;-63
2022/11/01 12:25:48;;;;;;;9.93;1.80;;;;;;;;;;4982544;28;20243;-64
2022/11/01 12:28:18;;;;;;;13.45;1.88;;;;;;;;;;4999992;28;20220;-64
2022/11/01 12:30:43;;;;;;;12.48;2.13;;;;;;;;;;4985916;28;20335;-65
2022/11/01 12:33:13;;;;;;;12.52;2.35;;;;;;;;;;5000131;28;20296;-65
2022/11/01 12:35:42;;;;;;;11.65;1.90;;;;;;;;;;4999823;28;20300;-65
2022/11/01 12:38:16;;;;;;;8.85;1.73;;;;;;;;;;5000127;28;20216;-65
2022/11/01 12:40:42;;;;;;;10.43;1.98;;;;;;;;;;4999497;28;20672;-65
2022/11/01 12:43:11;;;;;;;5.97;1.40;;;;;;;;;;5000501;28;20236;-65
2022/11/01 12:45:45;;;;;;;9.48;2.10;;;;;;;;;;5001010;28;20589;-65
2022/11/01 12:48:12;;;;;;;9.48;1.90;;;;;;;;;;5003065;28;20270;-65
2022/11/01 12:50:41;;;;;;;10.05;1.55;;;;;;;;;;4988096;28;20213;-65
2022/11/01 12:53:09;;;;;;;7.35;1.77;;;;;;;;;;4988930;28;20209;-65
2022/11/01 12:55:38;;;;;;;8.73;1.42;;;;;;;;;;4986922;28;20850;-65
2022/11/01 12:58:03;;;;;;;9.20;1.80;;;;;;;;;;4993739;28;20286;-65
2022/11/01 13:00:41;;;;;;;10.63;1.88;;;;;;;;;;5004575;28;20258;-65
2022/11/01 13:03:06;;;;;;;9.65;1.90;;;;;;;;;;4989110;28;20239;-64
2022/11/01 13:05:32;;;;;;;10.02;1.90;;;;;;;;;;4989446;28;20669;-66
2022/11/01 13:08:03;;;;;;;8.63;1.50;;;;;;;;;;4989520;28;20217;-65
2022/11/01 13:10:36;;;;;;;9.63;1.90;;;;;;;;;;4988034;28;20225;-65
2022/11/01 13:13:21;;;;;;;8.75;1.20;;;;;;;;;;5003243;28;20224;-66
2022/11/01 13:15:47;;;;;;;9.32;1.40;;;;;;;;;;4988229;28;20205;-67
2022/11/01 13:18:21;;;;;;;10.82;1.70;;;;;;;;;;4988388;28;20243;-66
2022/11/01 13:20:47;;;;;;;8.10;1.70;;;;;;;;;;5004018;28;20205;-66
2022/11/01 13:23:18;;;;;;;9.60;1.50;;;;;;;;;;4987257;28;20225;-66
2022/11/01 13:25:51;;;;;;;6.20;1.38;;;;;;;;;;5003452;28;20209;-66
2022/11/01 13:28:20;;;;;;;6.32;1.27;;;;;;;;;;5003323;28;20276;-66
2022/11/01 13:30:50;;;;;;;11.88;1.80;;;;;;;;;;4998812;28;20222;-66
2022/11/01 13:33:19;;;;;;;11.50;2.15;;;;;;;;;;5020914;28;20755;-66
2022/11/01 13:35:45;;;;;;;9.75;1.70;;;;;;;;;;4989241;28;20205;-66
2022/11/01 13:38:13;;;;;;;7.40;1.42;;;;;;;;;;4987900;28;20209;-66
2022/11/01 13:40:40;;;;;;;12.50;2.08;;;;;;;;;;5002992;28;20213;-66
2022/11/01 13:43:08;;;;;;;20.88;6.82;;;;;;;;;;4970148;28;20236;-66
2022/11/01 13:45:36;;;;;;;11.60;2.05;;;;;;;;;;4986357;28;20217;-66
2022/11/01 13:48:05;;;;;;;10.68;1.95;;;;;;;;;;4987674;28;20216;-66
2022/11/01 13:50:37;;;;;;;8.18;1.63;;;;;;;;;;5001316;28;20427;-66
2022/11/01 13:53:04;;;;;;;8.80;1.38;;;;;;;;;;4987124;28;20205;-66
2022/11/01 13:55:35;;;;;;;9.23;1.33;;;;;;;;;;4988364;28;20256;-66
2022/11/01 13:58:00;;;;;;;10.05;1.80;;;;;;;;;;4986289;28;20659;-66
2022/11/01 14:00:34;;;;;;;9.07;2.33;;;;;;;;;;4995295;28;20201;-65
2022/11/01 14:03:00;;;;;;;6.95;1.30;;;;;;;;;;4987999;28;20411;-66
2022/11/01 14:05:36;;;;;;;7.15;1.15;;;;;;;;;;5002228;28;20523;-66
2022/11/01 14:08:01;;;;;;;10.27;2.13;;;;;;;;;;4987944;28;20205;-66
2022/11/01 14:10:26;;;;;;;10.57;1.50;;;;;;;;;;4987292;28;20223;-66
2022/11/01 14:12:55;;;;;;;9.13;1.50;;;;;;;;;;4987433;28;20630;-66
2022/11/01 14:15:23;;;;;;;10.07;1.38;;;;;;;;;;4987515;28;20231;-66
2022/11/01 14:17:51;;;;;;;9.40;1.45;;;;;;;;;;5003133;28;20272;-66
2022/11/01 14:20:17;;;;;;;7.18;1.27;;;;;;;;;;4987277;28;20800;-66
2022/11/01 14:22:43;;;;;;;5.43;1.35;;;;;;;;;;4987791;28;20627;-66
2022/11/01 14:25:10;;;;;;;9.55;1.38;;;;;;;;;;5002657;28;20217;-66
2022/11/01 14:27:36;;;;;;;7.05;1.42;;;;;;;;;;4987215;28;20304;-66
2022/11/01 14:30:13;;;;;;;9.05;1.33;;;;;;;;;;4987061;28;20213;-66
2022/11/01 14:32:38;;;;;;;9.48;1.50;;;;;;;;;;4987288;28;20225;-66
2022/11/01 14:35:05;;;;;;;9.20;1.70;;;;;;;;;;5001756;28;20209;-66
2022/11/01 14:37:34;;;;;;;8.98;1.50;;;;;;;;;;5002585;28;20807;-66